Point Vicente — WDB9763 — position and weather

sailwx.info

Track history (hours):
 
Tides and Currents Weather Stations Pressure Air Temp Water Temp Dewpoint Dewpoint Depression Visibility Wind Speed Wind Dir Waves Ship Positions

Point Vicente

Owner: Foss Maritime Company, Seattle, WA. More information available from US FCC via Universal Licensing System and Coast Guard Vessel Documentation Center.

Last reported at 2018-Aug-14 23:28 UTC. Time now 2018-Aug-14 23:42 UTC.
Position N 37°54' W 122°22'.

Length 32 m; draft 4.3 m.

Type: Tug. MMSI: 366982330.

Date/timePositionNaut miles runAvg speedWind from/ knotsBaromVisibWave heightAir tempDewpointWater temp
2018-Aug-14 23:28N 37°54' W 122°22'0 0.0
2018-Aug-14 22:58N 37°54' W 122°22'0 0.0
2018-Aug-14 22:28N 37°54' W 122°22'0 0.0
2018-Aug-14 21:52N 37°54' W 122°22'0 0.0
2018-Aug-14 21:28N 37°54' W 122°22'0 0.0
2018-Aug-14 20:58N 37°54' W 122°22'0 0.0
2018-Aug-14 20:28N 37°54' W 122°22'0 0.0
2018-Aug-14 19:55N 37°54' W 122°22'0 0.0
2018-Aug-14 19:25N 37°54' W 122°22'0 0.0
2018-Aug-14 18:49N 37°54' W 122°22'0 0.0
2018-Aug-14 18:19N 37°54' W 122°22'0 0.0
2018-Aug-14 17:58N 37°54' W 122°22'0 0.0
2018-Aug-14 17:28N 37°54' W 122°22'0 0.0
2018-Aug-14 16:55N 37°54' W 122°22'0 0.0
2018-Aug-14 16:25N 37°54' W 122°22'0 0.0
2018-Aug-14 15:58N 37°54' W 122°22'0 0.0
2018-Aug-14 15:25N 37°54' W 122°22'0 0.0
2018-Aug-14 14:58N 37°54' W 122°22'0 0.0
2018-Aug-14 14:28N 37°54' W 122°22'0 0.0
2018-Aug-14 13:58N 37°54' W 122°22'0 0.0
2018-Aug-14 13:28N 37°54' W 122°22'0 0.0
2018-Aug-14 12:55N 37°54' W 122°22'0 0.0
2018-Aug-14 12:28N 37°54' W 122°22'0 0.0
2018-Aug-14 11:58N 37°54' W 122°22'0 0.0
2018-Aug-14 11:28N 37°54' W 122°22'0 0.0
2018-Aug-14 10:55N 37°54' W 122°22'0 0.0
2018-Aug-14 10:25N 37°54' W 122°22'0 0.0
2018-Aug-14 09:55N 37°54' W 122°22'0 0.0
2018-Aug-14 09:28N 37°54' W 122°22'0 0.0
2018-Aug-14 08:58N 37°54' W 122°22'0 0.0
2018-Aug-14 08:28N 37°54' W 122°22'0 0.0
2018-Aug-14 07:55N 37°54' W 122°22'0 0.0
2018-Aug-14 07:19N 37°54' W 122°22'0 0.0
2018-Aug-14 06:55N 37°54' W 122°22'0 0.0
2018-Aug-14 06:28N 37°54' W 122°22'0 0.0
2018-Aug-14 05:49N 37°54' W 122°22'0 0.0
2018-Aug-14 05:25N 37°54' W 122°22'0 0.0
2018-Aug-14 04:58N 37°54' W 122°22'0 0.0
2018-Aug-14 04:28N 37°54' W 122°22'0 0.0
2018-Aug-14 03:58N 37°54' W 122°22'0 0.0
2018-Aug-14 03:28N 37°54' W 122°22'0 0.0
2018-Aug-14 02:52N 37°54' W 122°22'0 0.0
2018-Aug-14 02:28N 37°54' W 122°22'0 0.0
2018-Aug-14 01:58N 37°54' W 122°22'0 0.0
2018-Aug-14 01:28N 37°54' W 122°22'0 0.0
2018-Aug-14 00:58N 37°54' W 122°22'0 0.0
2018-Aug-14 00:28N 37°54' W 122°22'0 0.2
2018-Aug-14 00:00N 37°54' W 122°22'1 1.5
2018-Aug-13 23:31N 37°55' W 122°22'1 1.2
2018-Aug-13 23:00N 37°54' W 122°22'0 0.8
2018-Aug-13 22:30N 37°54' W 122°22'0 0.0
2018-Aug-13 22:00N 37°54' W 122°22'0 0.0
2018-Aug-13 21:31N 37°54' W 122°22'  
2018-Aug-08 23:24N 37°54' W 122°22'2 6.2
2018-Aug-08 23:00N 37°55' W 122°25'5 9.4
2018-Aug-08 22:30N 38°00' W 122°24'5 9.8
2018-Aug-08 22:00N 38°03' W 122°19'5 9.0
2018-Aug-08 21:30N 38°04' W 122°14'5 2.1
2018-Aug-08 19:08N 38°02' W 122°08'1 5.8
2018-Aug-08 19:00N 38°02' W 122°08'0 0.2
2018-Aug-08 18:30N 38°02' W 122°08'2 4.6
2018-Aug-08 17:59N 38°03' W 122°11'4 8.5
2018-Aug-08 17:30N 38°03' W 122°16'5 9.3
2018-Aug-08 17:00N 38°02' W 122°22'5 9.3
2018-Aug-08 16:30N 37°58' W 122°26'4 8.6
2018-Aug-08 16:00N 37°54' W 122°24'1 2.4
2018-Aug-08 15:30N 37°54' W 122°22'0 0.0
2018-Aug-08 15:00N 37°54' W 122°22'0 0.0
2018-Aug-08 14:30N 37°54' W 122°22'0 0.0
2018-Aug-08 14:00N 37°54' W 122°22'0 0.0
2018-Aug-08 13:30N 37°54' W 122°22'0 0.0
2018-Aug-08 13:00N 37°54' W 122°22'0 0.0
2018-Aug-08 12:30N 37°54' W 122°22'0 0.0
2018-Aug-08 12:00N 37°54' W 122°22'0 0.0
2018-Aug-08 11:30N 37°54' W 122°22'0 0.0
2018-Aug-08 11:00N 37°54' W 122°22'0 0.0
2018-Aug-08 10:30N 37°54' W 122°22'0 0.0
2018-Aug-08 10:00N 37°54' W 122°22'0 0.0
2018-Aug-08 09:30N 37°54' W 122°22'0 0.0
2018-Aug-08 09:00N 37°54' W 122°22'0 0.0
2018-Aug-08 08:30N 37°54' W 122°22'0 0.0
2018-Aug-08 08:00N 37°54' W 122°22'0 0.0
2018-Aug-08 07:30N 37°54' W 122°22'0 0.0
2018-Aug-08 07:00N 37°54' W 122°22'0 0.0
2018-Aug-08 06:30N 37°54' W 122°22'0 0.0
2018-Aug-08 06:00N 37°54' W 122°22'0 0.0
2018-Aug-08 05:30N 37°54' W 122°22'0 0.0
2018-Aug-08 05:00N 37°54' W 122°22'0 0.0
2018-Aug-08 04:30N 37°54' W 122°22'0 0.0
2018-Aug-08 04:00N 37°54' W 122°22'0 0.0
2018-Aug-08 03:30N 37°54' W 122°22'0 0.0
2018-Aug-08 03:00N 37°54' W 122°22'0 0.0
2018-Aug-08 02:30N 37°54' W 122°22'0 0.0
2018-Aug-08 02:00N 37°54' W 122°22'0 0.0
2018-Aug-08 01:30N 37°54' W 122°22'0 0.0
2018-Aug-08 01:00N 37°54' W 122°22'0 0.0
2018-Aug-08 00:30N 37°54' W 122°22'0 0.0
2018-Aug-08 00:00N 37°54' W 122°22'0 0.0
2018-Aug-07 23:30N 37°54' W 122°22'0 0.0
2018-Aug-07 23:00N 37°54' W 122°22'0 0.0
2018-Aug-07 22:30N 37°54' W 122°22'0 0.0
2018-Aug-07 21:59N 37°54' W 122°22'0 0.0
2018-Aug-07 21:30N 37°54' W 122°22'0 0.0
2018-Aug-07 21:00N 37°54' W 122°22'0 0.0
2018-Aug-07 20:30N 37°54' W 122°22'0 0.0
2018-Aug-07 20:00N 37°54' W 122°22'0 0.0
2018-Aug-07 19:30N 37°54' W 122°22'0 0.0
2018-Aug-07 19:00N 37°54' W 122°22'0 0.0
2018-Aug-07 18:30N 37°54' W 122°22'0 0.0
2018-Aug-07 17:59N 37°54' W 122°22'0 0.0
2018-Aug-07 17:29N 37°54' W 122°22'0 0.0
2018-Aug-07 17:00N 37°54' W 122°22'3 5.3
2018-Aug-07 16:30N 37°52' W 122°24'4 7.7
2018-Aug-07 16:00N 37°48' W 122°22'3 6.5
2018-Aug-07 15:30N 37°45' W 122°21'3 5.4
2018-Aug-07 15:00N 37°48' W 122°22'510.9
2018-Aug-07 14:30N 37°53' W 122°24'2 3.6
2018-Aug-07 14:00N 37°54' W 122°22'0 0.0
2018-Aug-07 13:30N 37°54' W 122°22'0 0.0
2018-Aug-07 13:00N 37°54' W 122°22'0 0.0
2018-Aug-07 12:30N 37°54' W 122°22'0 0.0
2018-Aug-07 12:00N 37°54' W 122°22'0 0.0
2018-Aug-07 11:30N 37°54' W 122°22'0 0.0
2018-Aug-07 11:00N 37°54' W 122°22'0 0.0
2018-Aug-07 10:30N 37°54' W 122°22'0 0.0
2018-Aug-07 10:00N 37°54' W 122°22'0 0.0
2018-Aug-07 09:30N 37°54' W 122°22'0 0.0
2018-Aug-07 09:00N 37°54' W 122°22'0 0.0
2018-Aug-07 08:30N 37°54' W 122°22'0 0.0
2018-Aug-07 08:00N 37°54' W 122°22'0 0.0
2018-Aug-07 07:30N 37°54' W 122°22'0 0.0
2018-Aug-07 07:00N 37°54' W 122°22'0 0.0
2018-Aug-07 06:30N 37°54' W 122°22'0 0.0
2018-Aug-07 06:00N 37°54' W 122°22'0 0.0
2018-Aug-07 05:30N 37°54' W 122°22'0 0.0
2018-Aug-07 05:00N 37°54' W 122°22'0 0.0
2018-Aug-07 04:30N 37°54' W 122°22'0 0.0
2018-Aug-07 04:00N 37°54' W 122°22'0 0.0
2018-Aug-07 03:30N 37°54' W 122°22'0 0.0
2018-Aug-07 03:00N 37°54' W 122°22'0 0.0
2018-Aug-07 02:30N 37°54' W 122°22'0 0.0
2018-Aug-07 02:00N 37°54' W 122°22'0 0.0
2018-Aug-07 01:30N 37°54' W 122°22'0 0.0
2018-Aug-07 01:00N 37°54' W 122°22'0 0.0
2018-Aug-07 00:30N 37°54' W 122°22'0 0.0
2018-Aug-07 00:00N 37°54' W 122°22'0 0.0
2018-Aug-06 23:30N 37°54' W 122°22'0 0.0
2018-Aug-06 22:57N 37°54' W 122°22'0 0.0
2018-Aug-06 22:30N 37°54' W 122°22'0 0.0
2018-Aug-06 22:00N 37°54' W 122°22'0 0.0
2018-Aug-06 21:30N 37°54' W 122°22'0 0.0
2018-Aug-06 21:00N 37°54' W 122°22'0 0.0
2018-Aug-06 20:30N 37°54' W 122°22'0 0.0
2018-Aug-06 20:00N 37°54' W 122°22'0 0.0
2018-Aug-06 19:30N 37°54' W 122°22'0 0.0
2018-Aug-06 18:57N 37°54' W 122°22'0 0.0
2018-Aug-06 18:30N 37°54' W 122°22'0 0.0
2018-Aug-06 18:00N 37°54' W 122°22'0 0.0
2018-Aug-06 17:27N 37°54' W 122°22'0 0.0
2018-Aug-06 17:00N 37°54' W 122°22'0 0.0
2018-Aug-06 16:30N 37°54' W 122°22'0 0.0
2018-Aug-06 16:00N 37°54' W 122°22'0 0.0
2018-Aug-06 15:30N 37°54' W 122°22'0 0.0
2018-Aug-06 15:00N 37°54' W 122°22'0 0.0
2018-Aug-06 14:30N 37°54' W 122°22'0 0.0
2018-Aug-06 14:00N 37°54' W 122°22'0 0.0
2018-Aug-06 13:30N 37°54' W 122°22'0 0.0
2018-Aug-06 13:00N 37°54' W 122°22'0 0.0
2018-Aug-06 12:30N 37°54' W 122°22'0 0.0
2018-Aug-06 12:00N 37°54' W 122°22'0 0.0
2018-Aug-06 11:30N 37°54' W 122°22'0 0.0
2018-Aug-06 11:00N 37°54' W 122°22'0 0.0
2018-Aug-06 10:30N 37°54' W 122°22'0 0.0
2018-Aug-06 10:00N 37°54' W 122°22'0 0.0
2018-Aug-06 09:30N 37°54' W 122°22'0 0.0
2018-Aug-06 09:00N 37°54' W 122°22'0 0.0
2018-Aug-06 08:30N 37°54' W 122°22'0 0.0
2018-Aug-06 08:00N 37°54' W 122°22'0 0.0
2018-Aug-06 07:30N 37°54' W 122°22'0 0.0
2018-Aug-06 07:00N 37°54' W 122°22'0 0.0
2018-Aug-06 06:30N 37°54' W 122°22'0 0.0
2018-Aug-06 06:00N 37°54' W 122°22'0 0.0
2018-Aug-06 05:30N 37°54' W 122°22'0 0.0
2018-Aug-06 05:00N 37°54' W 122°22'0 0.0
2018-Aug-06 04:30N 37°54' W 122°22'0 0.0
2018-Aug-06 04:00N 37°54' W 122°22'0 0.0
2018-Aug-06 03:30N 37°54' W 122°22'0 0.0
2018-Aug-06 03:00N 37°54' W 122°22'0 0.0
2018-Aug-06 02:30N 37°54' W 122°22'0 0.0
2018-Aug-06 02:00N 37°54' W 122°22'0 0.0
2018-Aug-06 01:30N 37°54' W 122°22'0 0.0
2018-Aug-06 01:00N 37°54' W 122°22'0 0.0
2018-Aug-06 00:30N 37°54' W 122°22'0 0.0
2018-Aug-06 00:00N 37°54' W 122°22'0 0.0
2018-Aug-05 23:30N 37°54' W 122°22'0 0.0
2018-Aug-05 23:00N 37°54' W 122°22'0 0.0
2018-Aug-05 22:30N 37°54' W 122°22'0 0.0
2018-Aug-05 22:00N 37°54' W 122°22'0 0.0
2018-Aug-05 21:30N 37°54' W 122°22'0 0.0
2018-Aug-05 21:00N 37°54' W 122°22'0 0.0
2018-Aug-05 20:30N 37°54' W 122°22'0 0.0
2018-Aug-05 20:00N 37°54' W 122°22'0 0.0
2018-Aug-05 19:30N 37°54' W 122°22'0 0.0
2018-Aug-05 19:00N 37°54' W 122°22'0 0.0
2018-Aug-05 18:30N 37°54' W 122°22'0 0.0
2018-Aug-05 18:00N 37°54' W 122°22'0 0.0
2018-Aug-05 17:30N 37°54' W 122°22'0 0.0
2018-Aug-05 17:00N 37°54' W 122°22'0 0.0
2018-Aug-05 16:30N 37°54' W 122°22'0 0.0
2018-Aug-05 16:00N 37°54' W 122°22'0 0.0
2018-Aug-05 15:30N 37°54' W 122°22'0 0.0
2018-Aug-05 15:00N 37°54' W 122°22'0 0.0
2018-Aug-05 14:30N 37°54' W 122°22'0 0.0
2018-Aug-05 13:30N 37°54' W 122°22'0 0.0
2018-Aug-05 13:00N 37°54' W 122°22'0 0.0
2018-Aug-05 12:30N 37°54' W 122°22'0 0.0
2018-Aug-05 12:00N 37°54' W 122°22'0 0.0
2018-Aug-05 11:30N 37°54' W 122°22'0 0.0
2018-Aug-05 11:00N 37°54' W 122°22'0 0.0
2018-Aug-05 10:30N 37°54' W 122°22'0 0.0
2018-Aug-05 10:00N 37°54' W 122°22'0 0.0
2018-Aug-05 09:30N 37°54' W 122°22'0 0.0
2018-Aug-05 09:00N 37°54' W 122°22'0 0.0
2018-Aug-05 08:30N 37°54' W 122°22'0 0.0
2018-Aug-05 08:00N 37°54' W 122°22'0 0.0
2018-Aug-05 07:30N 37°54' W 122°22'0 0.0
2018-Aug-05 07:00N 37°54' W 122°22'0 0.0
2018-Aug-05 06:30N 37°54' W 122°22'0 0.0
2018-Aug-05 06:00N 37°54' W 122°22'0 0.0
2018-Aug-05 05:30N 37°54' W 122°22'0 0.0
2018-Aug-05 05:00N 37°54' W 122°22'0 0.0
2018-Aug-05 04:30N 37°54' W 122°22'0 0.0
2018-Aug-05 04:00N 37°54' W 122°22'0 0.0
2018-Aug-05 03:27N 37°54' W 122°22'0 0.0
2018-Aug-05 03:00N 37°54' W 122°22'0 0.0
2018-Aug-05 02:30N 37°54' W 122°22'0 0.0
2018-Aug-05 02:00N 37°54' W 122°22'0 0.0
2018-Aug-05 01:30N 37°54' W 122°22'0 0.0
2018-Aug-05 01:00N 37°54' W 122°22'0 0.0
2018-Aug-05 00:30N 37°54' W 122°22'0 0.0
2018-Aug-05 00:00N 37°54' W 122°22'0 0.0
2018-Aug-04 23:30N 37°54' W 122°22'  
Track history (hours):
 
Tides and Currents Weather Stations Pressure Air Temp Water Temp Dewpoint Dewpoint Depression Visibility Wind Speed Wind Dir Waves Ship Positions

Point Vicente

Owner: Foss Maritime Company, Seattle, WA. More information available from US FCC via Universal Licensing System and Coast Guard Vessel Documentation Center.

Last reported at 2018-Aug-14 23:28 UTC. Time now 2018-Aug-14 23:42 UTC.
Position N 37°54' W 122°22'.

Length 32 m; draft 4.3 m.

Type: Tug. MMSI: 366982330.

Date/timePositionNaut miles runAvg speedWind from/ knotsBaromVisibWave heightAir tempDewpointWater temp
2018-Aug-14 23:28N 37°54' W 122°22'0 0.0
2018-Aug-14 22:58N 37°54' W 122°22'0 0.0
2018-Aug-14 22:28N 37°54' W 122°22'0 0.0
2018-Aug-14 21:52N 37°54' W 122°22'0 0.0
2018-Aug-14 21:28N 37°54' W 122°22'0 0.0
2018-Aug-14 20:58N 37°54' W 122°22'0 0.0
2018-Aug-14 20:28N 37°54' W 122°22'0 0.0
2018-Aug-14 19:55N 37°54' W 122°22'0 0.0
2018-Aug-14 19:25N 37°54' W 122°22'0 0.0
2018-Aug-14 18:49N 37°54' W 122°22'0 0.0
2018-Aug-14 18:19N 37°54' W 122°22'0 0.0
2018-Aug-14 17:58N 37°54' W 122°22'0 0.0
2018-Aug-14 17:28N 37°54' W 122°22'0 0.0
2018-Aug-14 16:55N 37°54' W 122°22'0 0.0
2018-Aug-14 16:25N 37°54' W 122°22'0 0.0
2018-Aug-14 15:58N 37°54' W 122°22'0 0.0
2018-Aug-14 15:25N 37°54' W 122°22'0 0.0
2018-Aug-14 14:58N 37°54' W 122°22'0 0.0
2018-Aug-14 14:28N 37°54' W 122°22'0 0.0
2018-Aug-14 13:58N 37°54' W 122°22'0 0.0
2018-Aug-14 13:28N 37°54' W 122°22'0 0.0
2018-Aug-14 12:55N 37°54' W 122°22'0 0.0
2018-Aug-14 12:28N 37°54' W 122°22'0 0.0
2018-Aug-14 11:58N 37°54' W 122°22'0 0.0
2018-Aug-14 11:28N 37°54' W 122°22'0 0.0
2018-Aug-14 10:55N 37°54' W 122°22'0 0.0
2018-Aug-14 10:25N 37°54' W 122°22'0 0.0
2018-Aug-14 09:55N 37°54' W 122°22'0 0.0
2018-Aug-14 09:28N 37°54' W 122°22'0 0.0
2018-Aug-14 08:58N 37°54' W 122°22'0 0.0
2018-Aug-14 08:28N 37°54' W 122°22'0 0.0
2018-Aug-14 07:55N 37°54' W 122°22'0 0.0
2018-Aug-14 07:19N 37°54' W 122°22'0 0.0
2018-Aug-14 06:55N 37°54' W 122°22'0 0.0
2018-Aug-14 06:28N 37°54' W 122°22'0 0.0
2018-Aug-14 05:49N 37°54' W 122°22'0 0.0
2018-Aug-14 05:25N 37°54' W 122°22'0 0.0
2018-Aug-14 04:58N 37°54' W 122°22'0 0.0
2018-Aug-14 04:28N 37°54' W 122°22'0 0.0
2018-Aug-14 03:58N 37°54' W 122°22'0 0.0
2018-Aug-14 03:28N 37°54' W 122°22'0 0.0
2018-Aug-14 02:52N 37°54' W 122°22'0 0.0
2018-Aug-14 02:28N 37°54' W 122°22'0 0.0
2018-Aug-14 01:58N 37°54' W 122°22'0 0.0
2018-Aug-14 01:28N 37°54' W 122°22'0 0.0
2018-Aug-14 00:58N 37°54' W 122°22'0 0.0
2018-Aug-14 00:28N 37°54' W 122°22'0 0.2
2018-Aug-14 00:00N 37°54' W 122°22'1 1.5
2018-Aug-13 23:31N 37°55' W 122°22'1 1.2
2018-Aug-13 23:00N 37°54' W 122°22'0 0.8
2018-Aug-13 22:30N 37°54' W 122°22'0 0.0
2018-Aug-13 22:00N 37°54' W 122°22'0 0.0
2018-Aug-13 21:31N 37°54' W 122°22'  
2018-Aug-08 23:24N 37°54' W 122°22'2 6.2
2018-Aug-08 23:00N 37°55' W 122°25'5 9.4
2018-Aug-08 22:30N 38°00' W 122°24'5 9.8
2018-Aug-08 22:00N 38°03' W 122°19'5 9.0
2018-Aug-08 21:30N 38°04' W 122°14'5 2.1
2018-Aug-08 19:08N 38°02' W 122°08'1 5.8
2018-Aug-08 19:00N 38°02' W 122°08'0 0.2
2018-Aug-08 18:30N 38°02' W 122°08'2 4.6
2018-Aug-08 17:59N 38°03' W 122°11'4 8.5
2018-Aug-08 17:30N 38°03' W 122°16'5 9.3
2018-Aug-08 17:00N 38°02' W 122°22'5 9.3
2018-Aug-08 16:30N 37°58' W 122°26'4 8.6
2018-Aug-08 16:00N 37°54' W 122°24'1 2.4
2018-Aug-08 15:30N 37°54' W 122°22'0 0.0
2018-Aug-08 15:00N 37°54' W 122°22'0 0.0
2018-Aug-08 14:30N 37°54' W 122°22'0 0.0
2018-Aug-08 14:00N 37°54' W 122°22'0 0.0
2018-Aug-08 13:30N 37°54' W 122°22'0 0.0
2018-Aug-08 13:00N 37°54' W 122°22'0 0.0
2018-Aug-08 12:30N 37°54' W 122°22'0 0.0
2018-Aug-08 12:00N 37°54' W 122°22'0 0.0
2018-Aug-08 11:30N 37°54' W 122°22'0 0.0
2018-Aug-08 11:00N 37°54' W 122°22'0 0.0
2018-Aug-08 10:30N 37°54' W 122°22'0 0.0
2018-Aug-08 10:00N 37°54' W 122°22'0 0.0
2018-Aug-08 09:30N 37°54' W 122°22'0 0.0
2018-Aug-08 09:00N 37°54' W 122°22'0 0.0
2018-Aug-08 08:30N 37°54' W 122°22'0 0.0
2018-Aug-08 08:00N 37°54' W 122°22'0 0.0
2018-Aug-08 07:30N 37°54' W 122°22'0 0.0
2018-Aug-08 07:00N 37°54' W 122°22'0 0.0
2018-Aug-08 06:30N 37°54' W 122°22'0 0.0
2018-Aug-08 06:00N 37°54' W 122°22'0 0.0
2018-Aug-08 05:30N 37°54' W 122°22'0 0.0
2018-Aug-08 05:00N 37°54' W 122°22'0 0.0
2018-Aug-08 04:30N 37°54' W 122°22'0 0.0
2018-Aug-08 04:00N 37°54' W 122°22'0 0.0
2018-Aug-08 03:30N 37°54' W 122°22'0 0.0
2018-Aug-08 03:00N 37°54' W 122°22'0 0.0
2018-Aug-08 02:30N 37°54' W 122°22'0 0.0
2018-Aug-08 02:00N 37°54' W 122°22'0 0.0
2018-Aug-08 01:30N 37°54' W 122°22'0 0.0
2018-Aug-08 01:00N 37°54' W 122°22'0 0.0
2018-Aug-08 00:30N 37°54' W 122°22'0 0.0
2018-Aug-08 00:00N 37°54' W 122°22'0 0.0
2018-Aug-07 23:30N 37°54' W 122°22'0 0.0
2018-Aug-07 23:00N 37°54' W 122°22'0 0.0
2018-Aug-07 22:30N 37°54' W 122°22'0 0.0
2018-Aug-07 21:59N 37°54' W 122°22'0 0.0
2018-Aug-07 21:30N 37°54' W 122°22'0 0.0
2018-Aug-07 21:00N 37°54' W 122°22'0 0.0
2018-Aug-07 20:30N 37°54' W 122°22'0 0.0
2018-Aug-07 20:00N 37°54' W 122°22'0 0.0
2018-Aug-07 19:30N 37°54' W 122°22'0 0.0
2018-Aug-07 19:00N 37°54' W 122°22'0 0.0
2018-Aug-07 18:30N 37°54' W 122°22'0 0.0
2018-Aug-07 17:59N 37°54' W 122°22'0 0.0
2018-Aug-07 17:29N 37°54' W 122°22'0 0.0
2018-Aug-07 17:00N 37°54' W 122°22'3 5.3
2018-Aug-07 16:30N 37°52' W 122°24'4 7.7
2018-Aug-07 16:00N 37°48' W 122°22'3 6.5
2018-Aug-07 15:30N 37°45' W 122°21'3 5.4
2018-Aug-07 15:00N 37°48' W 122°22'510.9
2018-Aug-07 14:30N 37°53' W 122°24'2 3.6
2018-Aug-07 14:00N 37°54' W 122°22'0 0.0
2018-Aug-07 13:30N 37°54' W 122°22'0 0.0
2018-Aug-07 13:00N 37°54' W 122°22'0 0.0
2018-Aug-07 12:30N 37°54' W 122°22'0 0.0
2018-Aug-07 12:00N 37°54' W 122°22'0 0.0
2018-Aug-07 11:30N 37°54' W 122°22'0 0.0
2018-Aug-07 11:00N 37°54' W 122°22'0 0.0
2018-Aug-07 10:30N 37°54' W 122°22'0 0.0
2018-Aug-07 10:00N 37°54' W 122°22'0 0.0
2018-Aug-07 09:30N 37°54' W 122°22'0 0.0
2018-Aug-07 09:00N 37°54' W 122°22'0 0.0
2018-Aug-07 08:30N 37°54' W 122°22'0 0.0
2018-Aug-07 08:00N 37°54' W 122°22'0 0.0
2018-Aug-07 07:30N 37°54' W 122°22'0 0.0
2018-Aug-07 07:00N 37°54' W 122°22'0 0.0
2018-Aug-07 06:30N 37°54' W 122°22'0 0.0
2018-Aug-07 06:00N 37°54' W 122°22'0 0.0
2018-Aug-07 05:30N 37°54' W 122°22'0 0.0
2018-Aug-07 05:00N 37°54' W 122°22'0 0.0
2018-Aug-07 04:30N 37°54' W 122°22'0 0.0
2018-Aug-07 04:00N 37°54' W 122°22'0 0.0
2018-Aug-07 03:30N 37°54' W 122°22'0 0.0
2018-Aug-07 03:00N 37°54' W 122°22'0 0.0
2018-Aug-07 02:30N 37°54' W 122°22'0 0.0
2018-Aug-07 02:00N 37°54' W 122°22'0 0.0
2018-Aug-07 01:30N 37°54' W 122°22'0 0.0
2018-Aug-07 01:00N 37°54' W 122°22'0 0.0
2018-Aug-07 00:30N 37°54' W 122°22'0 0.0
2018-Aug-07 00:00N 37°54' W 122°22'0 0.0
2018-Aug-06 23:30N 37°54' W 122°22'0 0.0
2018-Aug-06 22:57N 37°54' W 122°22'0 0.0
2018-Aug-06 22:30N 37°54' W 122°22'0 0.0
2018-Aug-06 22:00N 37°54' W 122°22'0 0.0
2018-Aug-06 21:30N 37°54' W 122°22'0 0.0
2018-Aug-06 21:00N 37°54' W 122°22'0 0.0
2018-Aug-06 20:30N 37°54' W 122°22'0 0.0
2018-Aug-06 20:00N 37°54' W 122°22'0 0.0
2018-Aug-06 19:30N 37°54' W 122°22'0 0.0
2018-Aug-06 18:57N 37°54' W 122°22'0 0.0
2018-Aug-06 18:30N 37°54' W 122°22'0 0.0
2018-Aug-06 18:00N 37°54' W 122°22'0 0.0
2018-Aug-06 17:27N 37°54' W 122°22'0 0.0
2018-Aug-06 17:00N 37°54' W 122°22'0 0.0
2018-Aug-06 16:30N 37°54' W 122°22'0 0.0
2018-Aug-06 16:00N 37°54' W 122°22'0 0.0
2018-Aug-06 15:30N 37°54' W 122°22'0 0.0
2018-Aug-06 15:00N 37°54' W 122°22'0 0.0
2018-Aug-06 14:30N 37°54' W 122°22'0 0.0
2018-Aug-06 14:00N 37°54' W 122°22'0 0.0
2018-Aug-06 13:30N 37°54' W 122°22'0 0.0
2018-Aug-06 13:00N 37°54' W 122°22'0 0.0
2018-Aug-06 12:30N 37°54' W 122°22'0 0.0
2018-Aug-06 12:00N 37°54' W 122°22'0 0.0
2018-Aug-06 11:30N 37°54' W 122°22'0 0.0
2018-Aug-06 11:00N 37°54' W 122°22'0 0.0
2018-Aug-06 10:30N 37°54' W 122°22'0 0.0
2018-Aug-06 10:00N 37°54' W 122°22'0 0.0
2018-Aug-06 09:30N 37°54' W 122°22'0 0.0
2018-Aug-06 09:00N 37°54' W 122°22'0 0.0
2018-Aug-06 08:30N 37°54' W 122°22'0 0.0
2018-Aug-06 08:00N 37°54' W 122°22'0 0.0
2018-Aug-06 07:30N 37°54' W 122°22'0 0.0
2018-Aug-06 07:00N 37°54' W 122°22'0 0.0
2018-Aug-06 06:30N 37°54' W 122°22'0 0.0
2018-Aug-06 06:00N 37°54' W 122°22'0 0.0
2018-Aug-06 05:30N 37°54' W 122°22'0 0.0
2018-Aug-06 05:00N 37°54' W 122°22'0 0.0
2018-Aug-06 04:30N 37°54' W 122°22'0 0.0
2018-Aug-06 04:00N 37°54' W 122°22'0 0.0
2018-Aug-06 03:30N 37°54' W 122°22'0 0.0
2018-Aug-06 03:00N 37°54' W 122°22'0 0.0
2018-Aug-06 02:30N 37°54' W 122°22'0 0.0
2018-Aug-06 02:00N 37°54' W 122°22'0 0.0
2018-Aug-06 01:30N 37°54' W 122°22'0 0.0
2018-Aug-06 01:00N 37°54' W 122°22'0 0.0
2018-Aug-06 00:30N 37°54' W 122°22'0 0.0
2018-Aug-06 00:00N 37°54' W 122°22'0 0.0
2018-Aug-05 23:30N 37°54' W 122°22'0 0.0
2018-Aug-05 23:00N 37°54' W 122°22'0 0.0
2018-Aug-05 22:30N 37°54' W 122°22'0 0.0
2018-Aug-05 22:00N 37°54' W 122°22'0 0.0
2018-Aug-05 21:30N 37°54' W 122°22'0 0.0
2018-Aug-05 21:00N 37°54' W 122°22'0 0.0
2018-Aug-05 20:30N 37°54' W 122°22'0 0.0
2018-Aug-05 20:00N 37°54' W 122°22'0 0.0
2018-Aug-05 19:30N 37°54' W 122°22'0 0.0
2018-Aug-05 19:00N 37°54' W 122°22'0 0.0
2018-Aug-05 18:30N 37°54' W 122°22'0 0.0
2018-Aug-05 18:00N 37°54' W 122°22'0 0.0
2018-Aug-05 17:30N 37°54' W 122°22'0 0.0
2018-Aug-05 17:00N 37°54' W 122°22'0 0.0
2018-Aug-05 16:30N 37°54' W 122°22'0 0.0
2018-Aug-05 16:00N 37°54' W 122°22'0 0.0
2018-Aug-05 15:30N 37°54' W 122°22'0 0.0
2018-Aug-05 15:00N 37°54' W 122°22'0 0.0
2018-Aug-05 14:30N 37°54' W 122°22'0 0.0
2018-Aug-05 13:30N 37°54' W 122°22'0 0.0
2018-Aug-05 13:00N 37°54' W 122°22'0 0.0
2018-Aug-05 12:30N 37°54' W 122°22'0 0.0
2018-Aug-05 12:00N 37°54' W 122°22'0 0.0
2018-Aug-05 11:30N 37°54' W 122°22'0 0.0
2018-Aug-05 11:00N 37°54' W 122°22'0 0.0
2018-Aug-05 10:30N 37°54' W 122°22'0 0.0
2018-Aug-05 10:00N 37°54' W 122°22'0 0.0
2018-Aug-05 09:30N 37°54' W 122°22'0 0.0
2018-Aug-05 09:00N 37°54' W 122°22'0 0.0
2018-Aug-05 08:30N 37°54' W 122°22'0 0.0
2018-Aug-05 08:00N 37°54' W 122°22'0 0.0
2018-Aug-05 07:30N 37°54' W 122°22'0 0.0
2018-Aug-05 07:00N 37°54' W 122°22'0 0.0
2018-Aug-05 06:30N 37°54' W 122°22'0 0.0
2018-Aug-05 06:00N 37°54' W 122°22'0 0.0
2018-Aug-05 05:30N 37°54' W 122°22'0 0.0
2018-Aug-05 05:00N 37°54' W 122°22'0 0.0
2018-Aug-05 04:30N 37°54' W 122°22'0 0.0
2018-Aug-05 04:00N 37°54' W 122°22'0 0.0
2018-Aug-05 03:27N 37°54' W 122°22'0 0.0
2018-Aug-05 03:00N 37°54' W 122°22'0 0.0
2018-Aug-05 02:30N 37°54' W 122°22'0 0.0
2018-Aug-05 02:00N 37°54' W 122°22'0 0.0
2018-Aug-05 01:30N 37°54' W 122°22'0 0.0
2018-Aug-05 01:00N 37°54' W 122°22'0 0.0
2018-Aug-05 00:30N 37°54' W 122°22'0 0.0
2018-Aug-05 00:00N 37°54' W 122°22'0 0.0
2018-Aug-04 23:30N 37°54' W 122°22'  

Dump ship's entire track history